• Join FlightAware (Why Join?)
  • Login
  • US Flag 
12:53AM EDT


 

Airport Tracker/Info


-or-


 

Live Flight TrackerFlight Track Log ✈ GJS6221 ✈ 30-Sep-2013 ✈ KLGA - KSAV

Flight Track Log - Related Links

Times and Time Zones

All times are in EDT time to prevent confusion due to time zone crossing. See the GJS6221 flight status page for this flight to view local times or setup timezone preferences in your user account.

Time Position Orientation Groundspeed Altitude Reporting Facility
EDT Latitude Longitude Course Direction KTS MPH feet Rate Location/Type
02:16PM 40.7333 -73.8333 226° Southwest 191 220 2,400  Level New York TRACON
02:17PM 40.7500 -73.7833 66° East 234 269 4,700 2,400 Climbing New York TRACON
02:18PM 40.7833 -73.8667 298° West 268 308 7,300 2,520 Climbing New York TRACON
02:19PM 40.7500 -73.9500 242° Southwest 287 330 9,800 1,800 Climbing New York TRACON
02:21PM 40.3396 -74.2971 226° Southwest  Level Estimated
02:21PM 40.6203 -74.1203 225° Southwest 322 371 12,700  Level New York Center
02:22PM 40.5217 -74.1483 192° South 343 395 14,600 1,920 Climbing New York Center
02:23PM 40.4189 -74.1678 188° South 371 427 16,600 1,800 Climbing New York Center
02:24PM 40.3142 -74.1897 189° South 389 448 18,200 1,620 Climbing New York Center
02:26PM 40.0683 -74.2414 189° South 405 466 22,200 1,680 Climbing Washington Center
02:27PM 39.9628 -74.2894 199° South 405 466 24,000 1,560 Climbing Washington Center
02:28PM 39.8719 -74.3778 217° Southwest 399 459 25,300 1,200 Climbing Washington Center
02:29PM 39.7811 -74.4792 221° Southwest 415 478 26,400 960 Climbing Washington Center
02:30PM 39.6989 -74.5883 226° Southwest 426 490 27,300 840 Climbing Washington Center
02:31PM 39.6103 -74.7053 225° Southwest 437 503 28,200 900 Climbing Washington Center
02:32PM 39.5236 -74.8222 226° Southwest 447 514 29,100 900 Climbing Washington Center
02:33PM 39.4344 -74.9358 225° Southwest 452 520 30,000 900 Climbing Washington Center
02:34PM 39.3478 -75.0522 226° Southwest 457 526 31,000 900 Climbing Washington Center
02:35PM 39.2417 -75.1386 212° Southwest 457 526 31,900 900 Climbing Washington Center
02:36PM 39.1253 -75.1850 197° South 441 507 32,800 960 Climbing Washington Center
02:37PM 39.0086 -75.2389 200° South 441 507 33,900 1,020 Climbing Washington Center
02:38PM 38.8919 -75.2850 197° South 441 507 34,900 900 Climbing Washington Center
02:39PM 38.7794 -75.3333 199° South 441 507 35,800 720 Climbing Washington Center
02:40PM 38.6628 -75.3789 197° South 441 507 36,400 540 Climbing Washington Center
02:41PM 38.5483 -75.4244 197° South 441 507 36,900 480 Climbing Washington Center
02:42PM 38.4317 -75.4750 199° South 441 507 37,400 480 Climbing Washington Center
02:43PM 38.3192 -75.5361 203° Southwest 441 507 37,900 300 Climbing Washington Center
02:44PM 38.2211 -75.6261 216° Southwest 441 507 38,000  Climbing Washington Center
02:45PM 38.1208 -75.7183 216° Southwest 446 513 38,000  Level Washington Center
02:46PM 38.0144 -75.8264 219° Southwest 451 519 38,000  Level Washington Center
02:47PM 37.9225 -75.9050 214° Southwest 456 525 38,000  Level Washington Center
02:48PM 37.8200 -76.0019 217° Southwest 456 525 38,000  Level Washington Center
02:49PM 37.7092 -76.1117 218° Southwest 462 532 38,000  Level Washington Center
02:50PM 37.6044 -76.2000 214° Southwest 462 532 38,000  Level Washington Center
02:51PM 37.5036 -76.2933 216° Southwest 462 532 38,000  Level Washington Center
02:52PM 37.4053 -76.3842 216° Southwest 457 526 38,000  Level Washington Center
02:53PM 37.3022 -76.4769 216° Southwest 457 526 38,000  Level Washington Center
02:54PM 37.2142 -76.5542 215° Southwest 457 526 38,000  Level Washington Center
02:55PM 37.1153 -76.6467 217° Southwest 457 526 38,000  Level Washington Center
02:56PM 37.0164 -76.7364 216° Southwest 457 526 38,000  Level Washington Center
02:57PM 36.9175 -76.8258 216° Southwest 457 526 38,000  Level Washington Center
02:58PM 36.8183 -76.9150 216° Southwest 451 519 38,000  Level Washington Center
02:59PM 36.7214 -77.0042 216° Southwest 451 519 38,000  Level Washington Center
03:00PM 36.6244 -77.0956 217° Southwest 451 519 38,000  Level Washington Center
03:01PM 36.5272 -77.1867 217° Southwest 440 506 38,000  Level Washington Center
03:02PM 36.4342 -77.2803 219° Southwest 440 506 38,000  Level Washington Center
03:03PM 36.3347 -77.3686 216° Southwest 440 506 38,000  Level Washington Center
03:04PM 36.2397 -77.4564 217° Southwest 440 506 38,000  Level Washington Center
03:05PM 36.1464 -77.5469 218° Southwest 435 501 38,000  Level Washington Center
03:06PM 36.0508 -77.6394 218° Southwest 440 506 38,000  Level Washington Center
03:07PM 35.9514 -77.7242 215° Southwest 440 506 38,000  Level Washington Center
03:08PM 35.8497 -77.8061 213° Southwest 440 506 38,000  Level Washington Center
03:09PM 35.7461 -77.8850 212° Southwest 440 506 38,000  Level Washington Center
03:10PM 35.6358 -77.9714 212° Southwest 440 506 38,000  Level Washington Center
03:11PM 35.5319 -78.0500 212° Southwest 440 506 38,000  Level Washington Center
03:12PM 35.4281 -78.1308 212° Southwest 445 512 38,000  Level Washington Center
03:13PM 35.3242 -78.2117 212° Southwest 445 512 38,000  Level Washington Center
03:14PM 35.2222 -78.2922 213° Southwest 445 512 38,000  Level Washington Center
03:15PM 35.1203 -78.3725 213° Southwest 445 512 38,000  Level Washington Center
03:16PM 35.0181 -78.4528 213° Southwest 445 512 38,000  Level Washington Center
03:17PM 34.9139 -78.5300 211° Southwest 445 512 38,000  Level Washington Center
03:19PM 34.7478 -78.6556 212° Southwest 440 506 38,000  Level Jacksonville Center
03:20PM 34.6461 -78.7336 212° Southwest 440 506 38,000  Level Jacksonville Center
03:21PM 34.5442 -78.8092 211° Southwest 440 506 38,000  Level Jacksonville Center
03:22PM 34.4367 -78.8997 215° Southwest 440 506 38,000  Level Jacksonville Center
03:23PM 34.3308 -78.9803 212° Southwest 447 514 38,000  Level Jacksonville Center
03:24PM 34.2286 -79.0550 211° Southwest 447 514 38,000  Level Jacksonville Center
03:25PM 34.1247 -79.1325 212° Southwest 442 509 38,000 -300 Level Jacksonville Center
03:26PM 34.0225 -79.2069 211° Southwest 442 509 37,500 -1,080 Descending Jacksonville Center
03:27PM 33.9225 -79.2836 212° Southwest 442 509 35,900 -1,620 Descending Jacksonville Center
03:28PM 33.8203 -79.3603 212° Southwest 437 503 34,300 -1,680 Descending Jacksonville Center
03:29PM 33.7433 -79.4408 221° Southwest 416 479 32,600 -1,200 Descending Jacksonville Center
03:30PM 33.6642 -79.5289 223° Southwest 390 449 32,000 -720 Descending Jacksonville Center
03:31PM 33.5831 -79.6167 222° Southwest 390 449 31,200 -1,260 Descending Jacksonville Center
03:32PM 33.5019 -79.7069 223° Southwest 390 449 29,500 -1,740 Descending Jacksonville Center
03:33PM 33.4208 -79.7969 223° Southwest 395 455 27,800 -1,980 Descending Jacksonville Center
03:34PM 33.3414 -79.8867 223° Southwest 395 455 25,600 -2,640 Descending Jacksonville Center
03:35PM 33.2642 -79.9736 223° Southwest 395 455 22,600 -2,820 Descending Jacksonville Center
03:36PM 33.1869 -80.0581 222° Southwest 390 449 20,000 -1,320 Descending Jacksonville Center
03:37PM 33.1114 -80.1422 223° Southwest 380 437 20,000  Level Jacksonville Center
03:38PM 33.0381 -80.2239 223° Southwest 380 437 20,000  Level Jacksonville Center
03:39PM 32.9586 -80.3103 222° Southwest 389 448 20,000 -120 Level Jacksonville Center
03:40PM 32.8869 -80.3867 222° Southwest 389 448 19,800 -1,500 Descending Jacksonville Center
03:41PM 32.8092 -80.4681 221° Southwest 384 442 17,100 -2,700 Descending Jacksonville Center
03:42PM 32.7356 -80.5489 223° Southwest 384 442 14,400 -2,220 Descending Jacksonville Center
03:43PM 32.6661 -80.6247 223° Southwest 366 421 12,700 -1,620 Descending Jacksonville Center
03:44PM 32.6006 -80.6956 222° Southwest 345 397 11,200 -1,560 Descending Jacksonville Center
03:45PM 32.5453 -80.7608 225° Southwest 297 342 9,600 -1,620 Descending Jacksonville Center
03:46PM 32.4836 -80.8264 222° Southwest 273 314 8,000 -840 Descending Jacksonville Center
03:47PM 32.4303 -80.8867 224° Southwest 267 307 8,000 -840 Level Jacksonville Center
03:48PM 32.3919 -80.9589 238° Southwest 272 313 6,400 -1,620 Descending Jacksonville Center
03:49PM 32.3594 -81.0333 243° Southwest 267 307 4,800 -1,560 Descending Jacksonville Center
03:50PM 32.3253 -81.1078 242° Southwest 259 298 3,300 -1,440 Descending Jacksonville Center
03:51PM 32.2842 -81.1675 231° Southwest 265 305 2,000 -660 Descending Jacksonville Center
03:52PM 32.2328 -81.2225 222° Southwest 265 305 2,000  Level Jacksonville Center
03:53PM 32.1772 -81.2825 222° Southwest 265 305 2,000 -480 Level Jacksonville Center
03:54PM 32.1314 -81.2833 181° South 206 237 1,100 -900 Descending Jacksonville Center
03:55PM 32.1264 -81.2367 97° East 102 117 300 -480 Descending Jacksonville Center
03:56PM 32.1156 -81.2075 114° Southeast 102 117 200 -120 Descending Jacksonville Center
03:58PM 32.1167 -81.2000 North  Level FlightAware Approximate
04:05PM 32.1276 -81.2021 North  Level Estimated
04:06PM 32.1276 -81.2021 North  Level Estimated
04:07PM 32.1276 -81.2021 North  Level Estimated